createdAt,value
2018-10-19T00:01:44.572Z,25.58
2018-10-19T00:04:18.377Z,28.23
2018-10-19T00:06:52.172Z,26.15
2018-10-19T00:09:25.869Z,25.67
2018-10-19T00:12:00.174Z,24.58
2018-10-19T00:14:33.753Z,25.42
2018-10-19T00:17:08.208Z,30.10
2018-10-19T00:19:42.023Z,31.17
2018-10-19T00:22:15.693Z,31.20
2018-10-19T00:24:49.279Z,26.37
2018-10-19T00:27:22.873Z,27.75
2018-10-19T00:29:56.427Z,24.52
2018-10-19T00:32:30.696Z,30.75
2018-10-19T00:35:05.302Z,30.62
2018-10-19T00:37:38.964Z,30.08
2018-10-19T00:40:12.739Z,30.15
2018-10-19T00:42:46.354Z,29.60
2018-10-19T00:45:20.668Z,29.60
2018-10-19T00:47:54.525Z,26.83
2018-10-19T00:50:28.181Z,31.92
2018-10-19T00:53:01.968Z,26.27
2018-10-19T00:55:35.584Z,27.25
2018-10-19T00:58:09.283Z,30.42
2018-10-19T01:00:42.973Z,29.58
2018-10-19T01:03:16.586Z,35.45
2018-10-19T01:05:50.886Z,32.45
2018-10-19T01:08:24.555Z,32.28
2018-10-19T01:10:58.136Z,39.28
2018-10-19T01:13:31.710Z,33.35
2018-10-19T01:16:05.345Z,29.25
2018-10-19T01:18:39.019Z,31.80
2018-10-19T01:21:12.674Z,35.85
2018-10-19T01:23:46.219Z,28.42
2018-10-19T01:26:19.919Z,33.60
2018-10-19T01:28:53.459Z,36.40
2018-10-19T01:31:27.754Z,34.70
2018-10-19T01:34:02.050Z,35.00
2018-10-19T01:36:35.654Z,32.75
2018-10-19T01:39:09.456Z,33.08
2018-10-19T01:41:42.983Z,30.70
2018-10-19T01:44:16.581Z,34.50
2018-10-19T01:46:51.108Z,30.80
2018-10-19T01:49:24.667Z,35.55
2018-10-19T01:51:58.297Z,32.97
2018-10-19T01:54:31.892Z,35.42
2018-10-19T01:57:05.623Z,35.60
2018-10-19T01:59:39.273Z,33.72
2018-10-19T02:02:12.902Z,35.50
2018-10-19T02:04:46.487Z,39.55
2018-10-19T02:07:20.109Z,32.28
2018-10-19T02:09:53.902Z,35.40
2018-10-19T02:12:27.440Z,41.37
2018-10-19T02:15:01.135Z,38.60
2018-10-19T02:17:34.740Z,42.00
2018-10-19T02:20:08.413Z,33.25
2018-10-19T02:22:42.009Z,35.08
2018-10-19T02:25:15.539Z,40.05
2018-10-19T02:27:49.206Z,35.75
2018-10-19T02:30:22.747Z,40.97
2018-10-19T02:32:56.517Z,37.13
2018-10-19T02:35:30.104Z,36.22
2018-10-19T02:38:03.741Z,37.15
2018-10-19T02:40:37.418Z,39.60
2018-10-19T02:43:11.134Z,43.67
2018-10-19T02:45:45.646Z,35.80
2018-10-19T02:48:19.274Z,40.15
2018-10-19T02:50:52.894Z,37.05
2018-10-19T02:53:27.302Z,41.22
2018-10-19T02:56:01.701Z,43.28
2018-10-19T02:58:36.103Z,41.13
2018-10-19T03:01:10.454Z,38.60
2018-10-19T03:03:44.050Z,40.78
2018-10-19T03:06:17.826Z,41.25
2018-10-19T03:08:52.217Z,38.15
2018-10-19T03:11:25.893Z,35.90
2018-10-19T03:13:59.490Z,47.60
2018-10-19T03:16:33.329Z,43.00
2018-10-19T03:19:07.125Z,43.78
2018-10-19T03:21:40.869Z,40.28
2018-10-19T03:24:14.414Z,39.80
2018-10-19T03:26:48.038Z,42.47
2018-10-19T03:29:21.890Z,42.03
2018-10-19T03:31:55.373Z,40.80
2018-10-19T03:34:29.719Z,40.12
2018-10-19T03:37:04.135Z,42.85
2018-10-19T03:39:37.739Z,41.50
2018-10-19T03:42:11.284Z,43.20
2018-10-19T03:44:44.818Z,45.53
2018-10-19T03:47:18.480Z,51.75
2018-10-19T03:49:52.178Z,41.45
2018-10-19T03:52:25.753Z,42.22
2018-10-19T03:54:59.363Z,41.72
2018-10-19T03:57:32.940Z,45.35
2018-10-19T04:00:06.560Z,43.58
2018-10-19T04:02:40.145Z,52.28
2018-10-19T04:05:13.802Z,45.30
2018-10-19T04:07:48.202Z,39.85
2018-10-19T04:10:21.785Z,46.78
2018-10-19T04:12:55.454Z,44.00
2018-10-19T04:15:28.989Z,43.78
2018-10-19T04:18:03.495Z,44.63
2018-10-19T04:20:37.054Z,50.10
2018-10-19T04:23:11.636Z,48.92
2018-10-19T04:25:45.245Z,46.80
2018-10-19T04:28:18.869Z,63.75
2018-10-19T04:30:52.536Z,44.60
2018-10-19T04:33:26.957Z,53.20
2018-10-19T04:36:00.594Z,57.05
2018-10-19T04:38:34.393Z,42.17
2018-10-19T04:41:08.084Z,46.05
2018-10-19T04:43:41.663Z,49.38
2018-10-19T04:46:15.255Z,55.78
2018-10-19T04:48:48.916Z,47.50
2018-10-19T04:51:22.474Z,47.97
2018-10-19T04:53:56.069Z,45.95
2018-10-19T04:56:29.754Z,48.05
2018-10-19T04:59:03.421Z,57.33
2018-10-19T05:01:37.924Z,51.60
2018-10-19T05:04:11.742Z,49.15
2018-10-19T05:06:45.422Z,53.28
2018-10-19T05:09:19.663Z,48.67
2018-10-19T05:11:53.260Z,46.22
2018-10-19T05:14:27.049Z,44.28
2018-10-19T05:17:00.773Z,42.97
2018-10-19T05:19:34.622Z,52.75
2018-10-19T05:22:08.324Z,49.40
2018-10-19T05:24:42.124Z,49.95
2018-10-19T05:27:15.744Z,51.10
2018-10-19T05:29:49.382Z,51.60
2018-10-19T05:32:22.987Z,43.13
2018-10-19T05:34:56.570Z,42.95
2018-10-19T05:37:30.399Z,42.28
2018-10-19T05:40:04.014Z,46.30
2018-10-19T05:42:37.754Z,51.45
2018-10-19T05:45:11.350Z,49.40
2018-10-19T05:47:45.688Z,45.17
2018-10-19T05:50:19.485Z,46.97
2018-10-19T05:52:53.243Z,46.65
2018-10-19T05:55:26.831Z,44.08
2018-10-19T05:58:02.635Z,56.58
2018-10-19T06:00:36.387Z,48.70
2018-10-19T06:03:09.949Z,51.08
2018-10-19T06:05:44.298Z,48.08
2018-10-19T06:08:18.003Z,53.17
2018-10-19T06:10:51.814Z,56.58
2018-10-19T06:13:25.666Z,52.17
2018-10-19T06:16:00.774Z,49.83
2018-10-19T06:18:34.350Z,48.63
2018-10-19T06:21:08.129Z,45.08
2018-10-19T06:23:42.360Z,54.10
2018-10-19T06:26:16.112Z,47.47
2018-10-19T06:28:49.817Z,51.03
2018-10-19T06:31:23.530Z,50.42
2018-10-19T06:33:58.070Z,49.03
2018-10-19T06:36:31.720Z,49.47
2018-10-19T06:39:05.352Z,48.28
2018-10-19T06:41:39.134Z,49.53
2018-10-19T06:44:12.731Z,49.53
2018-10-19T06:46:46.324Z,53.95
2018-10-19T06:49:19.915Z,50.22
2018-10-19T06:51:53.485Z,48.85
2018-10-19T06:54:27.078Z,46.60
2018-10-19T06:57:00.986Z,53.03
2018-10-19T06:59:34.772Z,51.80
2018-10-19T07:02:08.501Z,51.78
2018-10-19T07:04:41.893Z,54.65
2018-10-19T07:07:15.560Z,52.70
2018-10-19T07:09:49.274Z,51.28
2018-10-19T07:12:22.847Z,53.22
2018-10-19T07:14:57.427Z,51.08
2018-10-19T07:17:31.190Z,58.55
2018-10-19T07:20:04.785Z,53.95
2018-10-19T07:22:38.385Z,49.00
2018-10-19T07:25:11.952Z,54.78
2018-10-19T07:27:46.413Z,62.28
2018-10-19T07:30:20.190Z,51.17
2018-10-19T07:32:53.779Z,52.60
2018-10-19T07:35:27.493Z,54.30
2018-10-19T07:38:01.151Z,46.85
2018-10-19T07:40:34.709Z,50.20
2018-10-19T07:43:08.514Z,50.45
2018-10-19T07:45:42.198Z,50.15
2018-10-19T07:48:15.894Z,45.92
2018-10-19T07:50:49.534Z,55.03
2018-10-19T07:53:23.290Z,54.50
2018-10-19T07:55:57.116Z,48.75
2018-10-19T07:58:30.885Z,45.63
2018-10-19T08:01:04.659Z,49.30
2018-10-19T08:03:38.259Z,50.12
2018-10-19T08:06:11.902Z,49.20
2018-10-19T08:08:45.537Z,50.83
2018-10-19T08:11:19.294Z,50.15
2018-10-19T08:13:52.908Z,48.17
2018-10-19T08:16:26.675Z,46.75
2018-10-19T08:19:00.375Z,49.00
2018-10-19T08:21:34.282Z,48.42
2018-10-19T08:24:08.120Z,49.03
2018-10-19T08:26:41.876Z,48.05
2018-10-19T08:29:15.629Z,48.20
2018-10-19T08:31:49.217Z,46.70
2018-10-19T08:34:22.782Z,47.88
2018-10-19T08:36:56.427Z,50.72
2018-10-19T08:39:30.955Z,46.33
2018-10-19T08:42:04.562Z,51.47
2018-10-19T08:44:38.204Z,46.13
2018-10-19T08:47:11.859Z,46.53
2018-10-19T08:49:46.252Z,42.60
2018-10-19T08:52:19.874Z,50.47
2018-10-19T08:54:53.645Z,53.38
2018-10-19T08:57:27.214Z,47.47
2018-10-19T09:00:00.852Z,42.53
2018-10-19T09:02:34.542Z,50.28
2018-10-19T09:05:08.207Z,46.47
2018-10-19T09:07:41.982Z,48.53
2018-10-19T09:10:15.563Z,45.95
2018-10-19T09:12:49.304Z,47.80
2018-10-19T09:15:23.101Z,48.00
2018-10-19T09:17:56.637Z,49.30
2018-10-19T09:20:31.035Z,48.70
2018-10-19T09:23:04.706Z,46.00
2018-10-19T09:25:38.292Z,48.27
2018-10-19T09:28:12.149Z,53.97
2018-10-19T09:30:45.708Z,52.30
2018-10-19T09:33:19.451Z,42.67
2018-10-19T09:35:53.139Z,50.58
2018-10-19T09:38:27.722Z,48.17
2018-10-19T09:41:01.414Z,49.65
2018-10-19T09:43:35.243Z,48.03
2018-10-19T09:46:09.655Z,47.67
2018-10-19T09:48:43.264Z,45.60
2018-10-19T09:51:17.112Z,45.50
2018-10-19T09:53:50.793Z,56.25
2018-10-19T09:56:24.791Z,49.00
2018-10-19T09:58:58.413Z,48.87
2018-10-19T10:01:32.552Z,50.47
2018-10-19T10:04:06.731Z,52.00
2018-10-19T10:06:40.541Z,51.00
2018-10-19T10:09:14.614Z,48.37
2018-10-19T10:11:48.454Z,51.63
2018-10-19T10:14:22.119Z,46.53
2018-10-19T10:16:56.135Z,47.90
2018-10-19T10:19:35.076Z,47.07
2018-10-19T10:22:09.468Z,46.97
2018-10-19T10:24:45.587Z,46.37
2018-10-19T10:27:19.422Z,52.20
2018-10-19T10:29:53.177Z,53.23
2018-10-19T10:32:27.221Z,51.70
2018-10-19T10:35:01.176Z,48.00
2018-10-19T10:37:35.009Z,50.40
2018-10-19T10:40:09.200Z,51.53
2018-10-19T10:42:43.877Z,53.07
2018-10-19T10:45:22.855Z,47.40
2018-10-19T10:47:56.982Z,53.43
2018-10-19T10:50:30.818Z,53.60
2018-10-19T10:53:04.710Z,51.33
2018-10-19T10:55:38.499Z,50.03
2018-10-19T10:58:13.016Z,52.07
2018-10-19T11:00:49.300Z,50.97
2018-10-19T11:03:23.811Z,52.00
2018-10-19T11:05:57.398Z,55.37
2018-10-19T11:08:30.970Z,54.53
2018-10-19T11:11:04.714Z,50.77
2018-10-19T11:13:38.434Z,49.30
2018-10-19T11:16:13.050Z,52.00
2018-10-19T11:18:46.561Z,49.27
2018-10-19T11:21:21.080Z,52.90
2018-10-19T11:23:55.500Z,47.13
2018-10-19T11:26:29.269Z,51.00
2018-10-19T11:29:02.907Z,50.13
2018-10-19T11:31:36.499Z,49.80
2018-10-19T11:34:10.640Z,48.10
2018-10-19T11:36:44.331Z,52.05
2018-10-19T11:39:18.114Z,50.65
2018-10-19T11:41:51.943Z,52.55
2018-10-19T11:44:26.473Z,54.67
2018-10-19T11:47:00.032Z,52.47
2018-10-19T11:49:34.449Z,51.50
2018-10-19T11:52:08.281Z,50.95
2018-10-19T11:54:41.986Z,55.60
2018-10-19T11:57:16.930Z,55.58
2018-10-19T11:59:50.386Z,56.60
2018-10-19T12:02:24.087Z,50.55
2018-10-19T12:04:57.752Z,54.03
2018-10-19T12:07:31.349Z,80.03
2018-10-19T12:10:05.003Z,55.25
2018-10-19T12:12:38.907Z,51.05
2018-10-19T12:15:13.459Z,53.33
2018-10-19T12:17:47.012Z,52.33
2018-10-19T12:20:21.397Z,53.05
2018-10-19T12:22:55.119Z,49.67
2018-10-19T12:25:28.733Z,49.65
2018-10-19T12:28:02.274Z,50.35
2018-10-19T12:30:36.622Z,48.75
2018-10-19T12:33:10.513Z,52.50
2018-10-19T12:35:44.043Z,51.53
2018-10-19T12:38:17.598Z,55.15
2018-10-19T12:40:51.304Z,48.58
2018-10-19T12:43:24.879Z,49.10
2018-10-19T12:46:10.474Z,54.10
2018-10-19T12:48:44.366Z,49.60
2018-10-19T12:51:18.132Z,52.45
2018-10-19T12:53:52.590Z,45.25
2018-10-19T12:56:26.099Z,51.35
2018-10-19T12:58:59.757Z,54.72
2018-10-19T13:01:33.349Z,48.72
2018-10-19T13:04:07.921Z,50.53
2018-10-19T13:06:42.306Z,49.70
2018-10-19T13:09:15.995Z,47.95
2018-10-19T13:11:49.740Z,51.25
2018-10-19T13:14:23.708Z,51.28
2018-10-19T13:16:57.549Z,53.87
2018-10-19T13:19:31.317Z,46.50
2018-10-19T13:22:05.505Z,51.40
2018-10-19T13:24:39.224Z,52.03
2018-10-19T13:27:15.730Z,53.17
2018-10-19T13:29:50.756Z,44.25
2018-10-19T13:32:28.114Z,52.33
2018-10-19T13:35:05.508Z,55.70
2018-10-19T13:37:40.253Z,49.55
2018-10-19T13:40:14.086Z,56.75
2018-10-19T13:42:47.877Z,48.50
2018-10-19T13:45:21.689Z,55.08
2018-10-19T13:47:55.459Z,53.22
2018-10-19T13:50:29.104Z,53.45
2018-10-19T13:53:02.798Z,53.38
2018-10-19T13:55:36.552Z,59.70
2018-10-19T13:58:10.345Z,49.65
2018-10-19T14:00:45.039Z,48.70
2018-10-19T14:03:18.898Z,51.72
2018-10-19T14:05:52.509Z,50.70
2018-10-19T14:08:26.044Z,48.70
2018-10-19T14:10:59.895Z,48.05
2018-10-19T14:13:33.862Z,54.78
2018-10-19T14:16:07.548Z,46.03
2018-10-19T14:18:41.883Z,46.10
2018-10-19T14:21:15.608Z,47.60
2018-10-19T14:23:49.203Z,47.67
2018-10-19T14:26:23.714Z,45.42
2018-10-19T14:28:57.431Z,48.58
2018-10-19T14:31:31.099Z,48.80
2018-10-19T14:34:04.821Z,47.10
2018-10-19T14:36:38.543Z,44.92
2018-10-19T14:39:12.216Z,49.05
2018-10-19T14:41:46.886Z,41.42
2018-10-19T14:44:20.605Z,47.95
2018-10-19T14:46:54.414Z,46.15
2018-10-19T14:49:28.030Z,44.95
2018-10-19T14:52:01.711Z,43.70
2018-10-19T14:54:35.673Z,47.60
2018-10-19T14:57:09.538Z,44.78
2018-10-19T14:59:43.700Z,48.70
2018-10-19T15:02:18.303Z,41.83
2018-10-19T15:04:51.960Z,48.67
2018-10-19T15:07:25.769Z,44.45
2018-10-19T15:09:59.547Z,41.67
2018-10-19T15:12:32.953Z,42.22
2018-10-19T15:15:06.498Z,47.60
2018-10-19T15:17:40.378Z,50.08
2018-10-19T15:20:14.064Z,46.22
2018-10-19T15:22:47.766Z,48.92
2018-10-19T15:25:21.362Z,47.95
2018-10-19T15:27:54.995Z,50.12
2018-10-19T15:30:28.753Z,44.33
2018-10-19T15:33:02.522Z,45.92
2018-10-19T15:35:36.071Z,48.03
2018-10-19T15:38:09.658Z,48.50
2018-10-19T15:40:43.490Z,46.25
2018-10-19T15:43:17.218Z,49.40
2018-10-19T15:45:50.806Z,53.33
2018-10-19T15:48:25.397Z,52.65
2018-10-19T15:50:59.164Z,43.13
2018-10-19T15:53:32.917Z,50.67
2018-10-19T15:56:06.499Z,45.42
2018-10-19T15:58:40.082Z,48.42
2018-10-19T16:01:13.687Z,54.13
2018-10-19T16:03:47.385Z,53.05
2018-10-19T16:06:20.988Z,47.03
2018-10-19T16:08:54.602Z,48.70
2018-10-19T16:11:28.188Z,45.42
2018-10-19T16:14:01.791Z,52.47
2018-10-19T16:16:36.329Z,47.33
2018-10-19T16:19:10.092Z,48.83
2018-10-19T16:21:43.691Z,46.55
2018-10-19T16:24:17.352Z,50.08
2018-10-19T16:26:50.973Z,51.53
2018-10-19T16:29:25.440Z,51.35
2018-10-19T16:31:59.221Z,41.50
2018-10-19T16:34:32.865Z,46.65
2018-10-19T16:37:06.573Z,46.13
2018-10-19T16:39:40.403Z,47.90
2018-10-19T16:42:14.142Z,43.83
2018-10-19T16:44:48.495Z,50.42
2018-10-19T16:47:22.301Z,47.50
2018-10-19T16:49:56.019Z,48.87
2018-10-19T16:52:29.949Z,43.95
2018-10-19T16:55:04.342Z,44.38
2018-10-19T16:57:37.941Z,48.67
2018-10-19T17:00:11.678Z,48.05
2018-10-19T17:02:45.539Z,50.83
2018-10-19T17:05:19.296Z,42.85
2018-10-19T17:07:52.883Z,46.60
2018-10-19T17:10:26.688Z,44.95
2018-10-19T17:13:00.460Z,46.42
2018-10-19T17:15:34.131Z,50.00
2018-10-19T17:18:07.817Z,48.08
2018-10-19T17:20:41.372Z,51.55
2018-10-19T17:23:16.024Z,46.45
2018-10-19T17:25:49.762Z,54.03
2018-10-19T17:28:23.573Z,49.72
2018-10-19T17:30:58.054Z,44.08
2018-10-19T17:33:31.657Z,47.15
2018-10-19T17:36:05.292Z,50.40
2018-10-19T17:38:38.876Z,43.85
2018-10-19T17:41:12.721Z,51.28
2018-10-19T17:43:46.495Z,53.85
2018-10-19T17:46:20.167Z,44.13
2018-10-19T17:48:54.013Z,51.42
2018-10-19T17:51:27.898Z,52.65
2018-10-19T17:54:01.635Z,56.05
2018-10-19T17:56:35.217Z,54.88
2018-10-19T17:59:09.028Z,51.03
2018-10-19T18:01:42.698Z,48.25
2018-10-19T18:04:16.349Z,53.20
2018-10-19T18:06:49.984Z,48.33
2018-10-19T18:09:23.658Z,52.90
2018-10-19T18:11:57.489Z,51.67
2018-10-19T18:14:32.031Z,45.22
2018-10-19T18:17:05.662Z,57.97
2018-10-19T18:19:39.462Z,51.37
2018-10-19T18:22:13.571Z,50.92
2018-10-19T18:24:47.049Z,56.10
2018-10-19T18:27:20.653Z,51.90
2018-10-19T18:29:54.438Z,50.88
2018-10-19T18:32:28.095Z,51.00
2018-10-19T18:35:02.595Z,52.30
2018-10-19T18:37:36.431Z,50.17
2018-10-19T18:40:10.025Z,50.67
2018-10-19T18:42:43.753Z,57.38
2018-10-19T18:45:17.524Z,50.10
2018-10-19T18:47:51.201Z,56.25
2018-10-19T18:50:25.095Z,57.10
2018-10-19T18:52:59.390Z,50.85
2018-10-19T18:55:33.811Z,48.47
2018-10-19T18:58:07.563Z,52.95
2018-10-19T19:00:41.182Z,49.05
2018-10-19T19:03:14.987Z,57.90
2018-10-19T19:05:49.495Z,49.65
2018-10-19T19:08:23.873Z,52.92
2018-10-19T19:10:57.571Z,55.10
2018-10-19T19:13:31.155Z,53.03
2018-10-19T19:16:05.001Z,48.47
2018-10-19T19:18:38.888Z,59.08
2018-10-19T19:21:12.620Z,54.10
2018-10-19T19:23:46.260Z,52.80
2018-10-19T19:26:20.166Z,52.97
2018-10-19T19:28:53.788Z,55.58
2018-10-19T19:31:28.334Z,48.78
2018-10-19T19:34:19.782Z,51.53
2018-10-19T19:36:54.356Z,54.75
2018-10-19T19:39:28.132Z,53.42
2018-10-19T19:42:18.247Z,48.20
2018-10-19T19:44:51.917Z,48.90
2018-10-19T19:47:25.554Z,45.85
2018-10-19T19:50:00.147Z,51.25
2018-10-19T19:52:33.870Z,45.40
2018-10-19T19:55:07.572Z,54.58
2018-10-19T19:57:41.315Z,48.53
2018-10-19T20:00:14.916Z,59.35
2018-10-19T20:02:48.510Z,50.85
2018-10-19T20:05:22.374Z,57.33
2018-10-19T20:07:56.088Z,62.20
2018-10-19T20:10:29.650Z,56.13
2018-10-19T20:13:03.248Z,52.53
2018-10-19T20:15:37.760Z,51.35
2018-10-19T20:18:11.512Z,56.47
2018-10-19T20:20:45.321Z,53.17
2018-10-19T20:23:18.929Z,60.38
2018-10-19T20:25:52.520Z,54.00
2018-10-19T20:28:27.123Z,53.40
2018-10-19T20:31:01.505Z,57.50
2018-10-19T20:33:35.402Z,52.05
2018-10-19T20:36:09.215Z,55.72
2018-10-19T20:38:42.874Z,52.17
2018-10-19T20:41:16.719Z,53.00
2018-10-19T20:43:50.437Z,59.33
2018-10-19T20:46:24.566Z,54.58
2018-10-19T20:48:58.284Z,48.10
2018-10-19T20:51:31.880Z,54.78
2018-10-19T20:54:11.511Z,55.90
2018-10-19T20:56:45.291Z,55.15
2018-10-19T20:59:19.130Z,53.92
2018-10-19T21:01:52.770Z,56.70
2018-10-19T21:04:26.604Z,59.03
2018-10-19T21:07:00.234Z,57.55
2018-10-19T21:09:33.803Z,57.88
2018-10-19T21:12:07.382Z,59.40
2018-10-19T21:14:40.938Z,61.15
2018-10-19T21:17:14.760Z,54.08
2018-10-19T21:19:48.301Z,59.58
2018-10-19T21:22:21.866Z,60.42
2018-10-19T21:24:55.446Z,64.57
2018-10-19T21:27:29.120Z,58.45
2018-10-19T21:30:02.814Z,54.25
2018-10-19T21:32:36.565Z,62.00
2018-10-19T21:35:10.404Z,56.83
2018-10-19T21:37:44.925Z,55.17
2018-10-19T21:40:18.674Z,64.03
2018-10-19T21:42:52.437Z,59.45
2018-10-19T21:45:26.807Z,56.83
2018-10-19T21:48:00.382Z,65.68
2018-10-19T21:50:33.933Z,58.03
2018-10-19T21:53:07.651Z,65.93
2018-10-19T21:55:41.189Z,62.00
2018-10-19T21:58:14.979Z,65.18
2018-10-19T22:00:49.435Z,58.28
2018-10-19T22:03:23.036Z,63.55
2018-10-19T22:05:57.505Z,63.83
2018-10-19T22:08:31.313Z,64.47
2018-10-19T22:11:05.745Z,56.67
2018-10-19T22:13:40.338Z,61.08
2018-10-19T22:16:14.651Z,59.70
2018-10-19T22:18:48.518Z,61.42
2018-10-19T22:21:22.361Z,62.35
2018-10-19T22:23:56.011Z,70.28
2018-10-19T22:26:29.916Z,71.35
2018-10-19T22:29:03.501Z,70.12
2018-10-19T22:31:37.199Z,61.08
2018-10-19T22:34:10.986Z,61.03
2018-10-19T22:36:44.487Z,55.90
2018-10-19T22:39:18.310Z,60.47
2018-10-19T22:41:51.853Z,58.40
2018-10-19T22:44:25.754Z,55.95
2018-10-19T22:46:59.469Z,63.20
2018-10-19T22:49:33.106Z,63.75
2018-10-19T22:52:07.430Z,60.75
2018-10-19T22:54:41.885Z,66.32
2018-10-19T22:57:15.615Z,61.75
2018-10-19T22:59:49.251Z,65.87
2018-10-19T23:02:22.822Z,62.20
2018-10-19T23:04:56.639Z,60.10
2018-10-19T23:07:30.283Z,58.50
2018-10-19T23:10:04.621Z,59.80
2018-10-19T23:12:38.226Z,67.50
2018-10-19T23:15:11.846Z,70.32
2018-10-19T23:17:45.384Z,67.82
2018-10-19T23:20:18.925Z,58.65
2018-10-19T23:22:52.543Z,60.78
2018-10-19T23:25:26.147Z,77.00
2018-10-19T23:27:59.790Z,67.68
2018-10-19T23:30:33.373Z,67.25
2018-10-19T23:33:07.171Z,72.20
2018-10-19T23:35:40.763Z,63.63
2018-10-19T23:38:14.385Z,65.22
2018-10-19T23:40:48.122Z,65.25
2018-10-19T23:43:21.695Z,76.03
2018-10-19T23:45:55.284Z,76.12
2018-10-19T23:48:28.871Z,74.87
2018-10-19T23:51:02.531Z,72.65
2018-10-19T23:53:37.024Z,63.03
2018-10-19T23:56:11.528Z,65.70
2018-10-19T23:58:45.141Z,72.00
